Greenwood, Texas
Current Conditions -  °F | °C
As of 5:55 PM on Friday 19 Dec 2014 (Local Time) from KLUD Reporting Station
Overcast Overcast  
Wind Chill: 43°   Ceiling: 1100
Heat Index: 45°   Visibility: 10mi
Dew Point: 42°   Wind: 5mph
Humidity: 91%   Direction: 20°NNE
Pressure: 30.17"   Gusts: NA
Location:  33.38°N, 97.47°W
Report Text: KLUD 192355Z AUTO 02004KT 10SM OVC011 07/06 A3017 RMK AO2 T00720058 10082 20070
Loading
Personal Weather Stations






























Interactive Weather Map New forecast layout! Learn more

10-Day Weather Forecast

Advertisements
Track Severe Weather on mobile